Time;durP1;ratioP1;P1;durP2;ratioP2;P2;SDS_P1;SDS_P2;PMS_P1;PMS_P2;Temp;Humidity;BMP_temperature;BMP_pressure;BME280_temperature;BME280_humidity;BME280_pressure;Samples;Min_cycle;Max_cycle;Signal;HPM_P1;HPM_P2
2022/02/05 00:01:17;;;;;;;21.98;15.90;;;;;;;;;;4965033;28;20051;-54
2022/02/05 00:03:47;;;;;;;24.35;16.52;;;;;;;;;;4948096;28;20493;-54
2022/02/05 00:06:16;;;;;;;22.88;16.70;;;;;;;;;;4974276;28;20054;-56
2022/02/05 00:08:55;;;;;;;22.27;16.33;;;;;;;;;;4985946;28;20149;-53
2022/02/05 00:11:48;;;;;;;26.30;17.23;;;;;;;;;;4988603;28;20026;-53
2022/02/05 00:44:30;;;;;;;26.13;16.95;;;;;;;;;;4962341;28;20038;-53
2022/02/05 00:46:55;;;;;;;25.33;16.87;;;;;;;;;;4979904;28;20065;-54
2022/02/05 00:49:21;;;;;;;24.30;15.98;;;;;;;;;;4988321;28;20281;-52
2022/02/05 00:51:55;;;;;;;24.27;17.20;;;;;;;;;;4988647;28;20076;-52
2022/02/05 00:54:23;;;;;;;25.30;17.35;;;;;;;;;;4978140;28;20043;-53
2022/02/05 00:57:18;;;;;;;24.05;16.33;;;;;;;;;;4969207;28;20030;-54
2022/02/05 00:59:36;;;;;;;24.17;16.27;;;;;;;;;;4968584;28;20025;-54
2022/02/05 01:02:02;;;;;;;23.83;15.50;;;;;;;;;;4968428;28;20018;-54
2022/02/05 01:04:27;;;;;;;22.58;16.02;;;;;;;;;;4968815;28;20357;-53
2022/02/05 01:06:52;;;;;;;23.30;16.43;;;;;;;;;;4982510;28;20081;-52
2022/02/05 01:09:23;;;;;;;23.77;16.60;;;;;;;;;;4969506;28;20274;-54
2022/02/05 01:11:49;;;;;;;24.02;16.15;;;;;;;;;;4968161;28;20274;-54
2022/02/05 01:14:18;;;;;;;24.60;16.50;;;;;;;;;;4977799;28;20409;-52
2022/02/05 01:19:16;;;;;;;25.23;16.50;;;;;;;;;;4970752;28;20027;-52
2022/02/05 01:21:49;;;;;;;23.60;16.13;;;;;;;;;;4969201;28;21368;-52
2022/02/05 01:24:16;;;;;;;22.40;16.27;;;;;;;;;;4969650;28;20022;-52
2022/02/05 01:26:49;;;;;;;23.73;16.20;;;;;;;;;;4968193;28;20027;-52
2022/02/05 01:29:33;;;;;;;26.08;17.15;;;;;;;;;;4951601;28;20105;-53
2022/02/05 01:32:02;;;;;;;24.88;16.70;;;;;;;;;;4967641;28;20492;-51
2022/02/05 01:34:42;;;;;;;23.48;15.95;;;;;;;;;;4967682;28;20533;-53
2022/02/05 02:06:07;;;;;;;22.85;16.17;;;;;;;;;;4987192;28;20131;-52
2022/02/05 02:14:30;;;;;;;24.95;15.70;;;;;;;;;;4973283;28;20105;-52
2022/02/05 02:32:10;;;;;;;23.63;16.33;;;;;;;;;;4986430;28;20019;-53
2022/02/05 02:34:41;;;;;;;22.20;15.60;;;;;;;;;;4985971;28;20340;-53
2022/02/05 02:37:11;;;;;;;25.35;16.10;;;;;;;;;;4986433;28;20480;-53
2022/02/05 02:39:50;;;;;;;23.80;15.90;;;;;;;;;;4986248;28;20221;-54
2022/02/05 02:42:17;;;;;;;21.70;14.95;;;;;;;;;;4986350;28;20027;-53
2022/02/05 02:44:42;;;;;;;23.00;15.35;;;;;;;;;;4986199;28;20030;-54
2022/02/05 02:47:07;;;;;;;21.13;15.73;;;;;;;;;;4986046;28;20064;-54
2022/02/05 02:57:53;;;;;;;22.75;15.02;;;;;;;;;;4966289;28;20033;-53
2022/02/05 03:00:19;;;;;;;24.17;15.75;;;;;;;;;;4966555;28;20031;-54
2022/02/05 03:02:44;;;;;;;19.08;14.38;;;;;;;;;;4966250;28;20023;-53
2022/02/05 03:05:09;;;;;;;22.58;14.95;;;;;;;;;;4966313;28;20035;-52
2022/02/05 03:07:35;;;;;;;22.30;15.30;;;;;;;;;;4982249;28;20073;-54
2022/02/05 03:10:00;;;;;;;21.45;14.93;;;;;;;;;;4966306;28;20269;-53
2022/02/05 03:12:25;;;;;;;21.67;15.65;;;;;;;;;;4965906;28;20110;-54
2022/02/05 03:14:51;;;;;;;21.10;14.77;;;;;;;;;;4979715;28;20037;-53
2022/02/05 03:17:18;;;;;;;21.35;15.40;;;;;;;;;;4985330;28;20492;-54
2022/02/05 03:19:44;;;;;;;20.30;14.52;;;;;;;;;;4985760;28;20465;-53
2022/02/05 03:22:10;;;;;;;21.63;15.25;;;;;;;;;;4985480;28;20042;-52
2022/02/05 03:24:35;;;;;;;20.52;14.18;;;;;;;;;;4985605;28;20028;-53
2022/02/05 03:27:00;;;;;;;20.90;14.23;;;;;;;;;;4985461;28;20018;-53
2022/02/05 03:29:26;;;;;;;20.55;14.45;;;;;;;;;;4967360;28;20333;-54
2022/02/05 03:31:51;;;;;;;20.40;14.10;;;;;;;;;;4966355;28;20125;-53
2022/02/05 03:34:16;;;;;;;23.00;14.80;;;;;;;;;;4974640;28;20436;-53
2022/02/05 03:36:41;;;;;;;20.73;14.57;;;;;;;;;;4973072;28;20278;-53
2022/02/05 03:39:07;;;;;;;19.00;13.57;;;;;;;;;;4965995;28;20278;-52
2022/02/05 03:41:32;;;;;;;19.50;14.45;;;;;;;;;;4965905;28;20097;-52
2022/02/05 03:43:58;;;;;;;20.27;14.27;;;;;;;;;;4967985;28;20094;-53
2022/02/05 03:46:23;;;;;;;20.30;13.88;;;;;;;;;;4970241;28;20634;-53
2022/02/05 03:48:49;;;;;;;20.03;13.67;;;;;;;;;;4970284;28;20090;-54
2022/02/05 03:51:14;;;;;;;19.00;13.98;;;;;;;;;;4969941;28;20353;-53
2022/02/05 03:53:39;;;;;;;17.70;14.07;;;;;;;;;;4973201;28;20464;-54
2022/02/05 03:56:04;;;;;;;19.67;13.32;;;;;;;;;;4981861;28;20319;-52
2022/02/05 03:58:30;;;;;;;20.63;14.43;;;;;;;;;;4970007;28;20030;-53
2022/02/05 04:00:55;;;;;;;19.70;13.87;;;;;;;;;;4969774;28;20305;-53
2022/02/05 04:03:20;;;;;;;18.83;13.87;;;;;;;;;;4969150;28;20266;-54
2022/02/05 04:05:45;;;;;;;19.27;13.37;;;;;;;;;;4974317;28;20304;-53
2022/02/05 04:08:12;;;;;;;18.92;13.18;;;;;;;;;;4989166;28;20270;-53
2022/02/05 04:10:48;;;;;;;19.15;13.07;;;;;;;;;;4989023;28;20708;-53
2022/02/05 04:16:00;;;;;;;18.60;13.10;;;;;;;;;;4969682;28;20041;-53
2022/02/05 04:18:26;;;;;;;18.77;12.75;;;;;;;;;;4969671;28;20038;-54
2022/02/05 04:20:51;;;;;;;18.55;12.85;;;;;;;;;;4970026;28;20428;-53
2022/02/05 04:23:16;;;;;;;20.73;14.25;;;;;;;;;;4972319;28;20461;-52
2022/02/05 04:25:42;;;;;;;19.27;13.47;;;;;;;;;;4977214;28;20110;-54
2022/02/05 04:28:07;;;;;;;19.77;13.23;;;;;;;;;;4990364;28;20266;-53
2022/02/05 04:30:32;;;;;;;16.30;11.87;;;;;;;;;;4988396;28;20484;-53
2022/02/05 04:32:57;;;;;;;18.15;12.85;;;;;;;;;;4988195;28;20801;-53
2022/02/05 04:35:23;;;;;;;17.73;12.53;;;;;;;;;;4970270;28;20465;-53
2022/02/05 04:37:51;;;;;;;18.08;12.30;;;;;;;;;;4968940;28;20733;-53
2022/02/05 04:46:08;;;;;;;15.10;11.83;;;;;;;;;;4970715;28;20077;-52
2022/02/05 04:51:39;;;;;;;17.20;12.45;;;;;;;;;;4968405;28;20042;-51
2022/02/05 04:56:52;;;;;;;17.40;11.95;;;;;;;;;;4986801;28;20653;-53
2022/02/05 05:20:07;;;;;;;16.67;11.70;;;;;;;;;;4988131;28;20068;-54
2022/02/05 05:22:33;;;;;;;16.67;11.93;;;;;;;;;;4987869;28;20042;-55
2022/02/05 05:25:00;;;;;;;17.30;11.53;;;;;;;;;;4987453;28;20412;-54
2022/02/05 05:27:26;;;;;;;16.90;11.07;;;;;;;;;;4985281;28;20262;-54
2022/02/05 05:29:51;;;;;;;16.33;11.38;;;;;;;;;;4968514;28;20030;-55
2022/02/05 05:32:16;;;;;;;17.27;12.13;;;;;;;;;;4968099;28;20027;-54
2022/02/05 05:34:42;;;;;;;15.23;11.07;;;;;;;;;;4979516;28;20301;-54
2022/02/05 05:37:07;;;;;;;14.80;11.20;;;;;;;;;;4971714;28;20341;-54
2022/02/05 05:39:33;;;;;;;15.18;10.80;;;;;;;;;;4967753;28;20289;-54
2022/02/05 05:41:59;;;;;;;14.80;11.15;;;;;;;;;;4967525;28;20030;-54
2022/02/05 05:46:53;;;;;;;15.77;10.90;;;;;;;;;;4980979;28;20178;-54
2022/02/05 05:49:21;;;;;;;16.88;11.10;;;;;;;;;;4986847;28;21108;-53
2022/02/05 05:51:48;;;;;;;16.35;11.63;;;;;;;;;;4985923;28;20026;-53
2022/02/05 05:54:13;;;;;;;15.32;10.68;;;;;;;;;;4960820;28;20105;-51
2022/02/05 05:56:38;;;;;;;15.48;10.45;;;;;;;;;;4966247;28;20337;-50
2022/02/05 05:59:04;;;;;;;15.98;10.98;;;;;;;;;;4966636;28;20490;-53
2022/02/05 06:01:29;;;;;;;14.88;10.52;;;;;;;;;;4967630;28;20023;-51
2022/02/05 06:03:54;;;;;;;13.15;10.60;;;;;;;;;;4966219;28;20026;-51
2022/02/05 06:06:20;;;;;;;15.53;10.50;;;;;;;;;;4976090;28;20054;-53
2022/02/05 06:08:45;;;;;;;17.03;11.73;;;;;;;;;;4974382;28;20318;-53
2022/02/05 06:11:10;;;;;;;13.88;10.80;;;;;;;;;;4967172;28;20278;-53
2022/02/05 06:13:36;;;;;;;14.93;10.47;;;;;;;;;;4969922;28;20113;-55
2022/02/05 06:16:04;;;;;;;15.40;10.77;;;;;;;;;;4979757;28;21196;-54
2022/02/05 06:18:30;;;;;;;15.27;10.88;;;;;;;;;;4983603;28;20025;-54
2022/02/05 06:20:55;;;;;;;16.65;10.48;;;;;;;;;;4971691;28;20413;-55
2022/02/05 06:23:20;;;;;;;16.27;10.77;;;;;;;;;;4966096;28;20033;-54
2022/02/05 06:25:46;;;;;;;14.67;10.33;;;;;;;;;;4972656;28;20806;-53
2022/02/05 06:28:14;;;;;;;14.35;10.77;;;;;;;;;;4987515;28;20311;-53
2022/02/05 06:30:39;;;;;;;15.98;10.73;;;;;;;;;;4985867;28;20019;-52
2022/02/05 06:33:04;;;;;;;15.85;11.23;;;;;;;;;;4981830;28;20632;-53
2022/02/05 06:35:30;;;;;;;23.75;16.77;;;;;;;;;;4971633;28;20037;-56
2022/02/05 06:37:55;;;;;;;26.97;17.83;;;;;;;;;;4980804;28;20022;-53
2022/02/05 06:40:20;;;;;;;25.13;18.13;;;;;;;;;;4966031;28;20301;-54
2022/02/05 06:42:46;;;;;;;28.60;19.17;;;;;;;;;;4965389;28;20018;-53
2022/02/05 06:45:11;;;;;;;27.08;19.38;;;;;;;;;;4971490;28;20694;-54
2022/02/05 06:47:36;;;;;;;27.40;19.80;;;;;;;;;;4966501;28;20038;-55
2022/02/05 06:50:01;;;;;;;25.80;18.77;;;;;;;;;;4967742;28;20094;-53
2022/02/05 06:52:27;;;;;;;28.50;18.48;;;;;;;;;;4984528;28;20335;-54
2022/02/05 06:54:52;;;;;;;27.00;19.13;;;;;;;;;;4983393;28;20428;-55
2022/02/05 06:57:17;;;;;;;23.83;17.53;;;;;;;;;;4983997;28;20476;-54
2022/02/05 06:59:42;;;;;;;26.63;18.80;;;;;;;;;;4973706;28;20268;-53
2022/02/05 07:02:08;;;;;;;26.98;18.10;;;;;;;;;;4977813;28;20097;-53
2022/02/05 07:04:33;;;;;;;25.10;17.53;;;;;;;;;;4969089;28;20473;-58
2022/02/05 07:06:58;;;;;;;26.07;18.43;;;;;;;;;;4966059;28;20282;-53
2022/02/05 07:09:27;;;;;;;27.15;16.88;;;;;;;;;;4976700;28;20284;-54
2022/02/05 07:11:55;;;;;;;24.63;16.65;;;;;;;;;;4965983;28;20076;-53
2022/02/05 07:14:24;;;;;;;24.92;16.90;;;;;;;;;;4984692;28;20030;-53
2022/02/05 07:16:56;;;;;;;24.83;16.00;;;;;;;;;;4971201;28;20027;-54
2022/02/05 07:19:55;;;;;;;24.75;17.00;;;;;;;;;;4963857;28;20031;-53
2022/02/05 07:22:07;;;;;;;28.45;16.85;;;;;;;;;;4964301;28;20109;-54
2022/02/05 07:30:07;;;;;;;24.05;15.45;;;;;;;;;;4924960;29;20055;-54
2022/02/05 07:32:32;;;;;;;22.23;15.90;;;;;;;;;;4972394;28;20038;-53
2022/02/05 07:34:58;;;;;;;24.38;15.88;;;;;;;;;;4971754;28;20066;-54
2022/02/05 07:37:23;;;;;;;22.73;15.57;;;;;;;;;;4965988;28;20026;-54
2022/02/05 07:39:48;;;;;;;21.20;15.43;;;;;;;;;;4966036;28;20285;-54
2022/02/05 07:42:14;;;;;;;19.52;15.40;;;;;;;;;;4965895;28;20346;-53
2022/02/05 07:44:39;;;;;;;21.58;15.55;;;;;;;;;;4948312;28;20097;-54
2022/02/05 07:47:05;;;;;;;22.85;15.68;;;;;;;;;;4980590;28;20058;-54
2022/02/05 07:49:37;;;;;;;22.98;16.08;;;;;;;;;;4984974;28;20037;-53
2022/02/05 07:52:03;;;;;;;21.33;15.70;;;;;;;;;;4985125;28;20101;-53
2022/02/05 07:54:28;;;;;;;21.98;15.60;;;;;;;;;;4975354;28;20485;-53
2022/02/05 07:56:53;;;;;;;23.03;15.10;;;;;;;;;;4965796;28;20505;-53
2022/02/05 07:59:18;;;;;;;21.57;15.00;;;;;;;;;;4948208;28;20848;-53
2022/02/05 08:01:44;;;;;;;20.73;15.02;;;;;;;;;;4965736;28;20269;-53
2022/02/05 08:04:09;;;;;;;19.35;14.90;;;;;;;;;;4965901;28;20027;-54
2022/02/05 08:06:35;;;;;;;20.73;14.88;;;;;;;;;;4975856;28;20050;-53
2022/02/05 08:09:04;;;;;;;21.50;14.80;;;;;;;;;;4985350;28;20433;-54
2022/02/05 08:11:38;;;;;;;21.83;15.50;;;;;;;;;;4984819;28;20551;-53
2022/02/05 08:14:08;;;;;;;20.90;14.75;;;;;;;;;;4978606;28;20030;-54
2022/02/05 08:17:21;;;;;;;21.45;14.63;;;;;;;;;;4966563;28;20493;-54
2022/02/05 08:19:19;;;;;;;19.83;15.35;;;;;;;;;;4959917;28;20030;-53
2022/02/05 08:21:44;;;;;;;21.73;15.18;;;;;;;;;;4966749;28;20019;-54
2022/02/05 08:24:09;;;;;;;22.58;15.75;;;;;;;;;;4965898;28;20027;-54
2022/02/05 08:26:36;;;;;;;20.13;14.73;;;;;;;;;;4975933;28;20026;-53
2022/02/05 08:29:01;;;;;;;20.35;14.18;;;;;;;;;;4984977;28;20277;-54
2022/02/05 08:31:27;;;;;;;21.38;15.50;;;;;;;;;;4988089;28;20480;-53
2022/02/05 08:33:53;;;;;;;20.00;14.75;;;;;;;;;;4983529;28;20134;-54
2022/02/05 08:36:19;;;;;;;19.80;14.93;;;;;;;;;;4969081;28;20018;-54
2022/02/05 08:38:44;;;;;;;19.27;15.07;;;;;;;;;;4969097;28;20034;-55
2022/02/05 08:41:10;;;;;;;20.60;15.13;;;;;;;;;;4968815;28;20082;-55
2022/02/05 08:43:36;;;;;;;20.03;14.53;;;;;;;;;;4951405;28;20034;-55
2022/02/05 08:46:01;;;;;;;19.17;14.32;;;;;;;;;;4969008;28;20281;-55
2022/02/05 08:48:26;;;;;;;19.13;13.98;;;;;;;;;;4968696;28;20027;-55
2022/02/05 08:50:52;;;;;;;19.93;14.30;;;;;;;;;;4968978;28;20034;-54
2022/02/05 08:53:20;;;;;;;20.42;14.40;;;;;;;;;;4951617;28;20336;-54
2022/02/05 08:55:45;;;;;;;20.20;14.32;;;;;;;;;;4968834;28;20053;-53
2022/02/05 08:58:11;;;;;;;21.75;14.40;;;;;;;;;;4969017;28;20619;-53
2022/02/05 09:00:45;;;;;;;20.83;14.43;;;;;;;;;;4967270;28;20034;-55
2022/02/05 09:03:14;;;;;;;20.85;14.43;;;;;;;;;;4968250;28;20080;-54
2022/02/05 09:05:46;;;;;;;22.05;14.88;;;;;;;;;;4971345;28;20031;-55
2022/02/05 09:08:26;;;;;;;20.08;13.93;;;;;;;;;;4987501;28;20042;-55
2022/02/05 09:11:17;;;;;;;18.88;13.80;;;;;;;;;;4987792;28;20520;-55
2022/02/05 09:16:08;;;;;;;19.20;13.35;;;;;;;;;;4968556;28;20038;-54
2022/02/05 09:18:34;;;;;;;18.70;13.40;;;;;;;;;;4950575;28;20113;-55
2022/02/05 09:21:00;;;;;;;17.92;13.98;;;;;;;;;;4968373;28;20037;-54
2022/02/05 09:23:25;;;;;;;19.85;13.80;;;;;;;;;;4968376;28;20023;-54
2022/02/05 09:25:50;;;;;;;19.15;14.20;;;;;;;;;;4972421;28;20041;-54
2022/02/05 09:28:16;;;;;;;18.95;14.52;;;;;;;;;;4979622;28;20080;-54
2022/02/05 09:31:00;;;;;;;19.25;13.32;;;;;;;;;;4968016;28;20068;-53
2022/02/05 09:33:25;;;;;;;18.15;13.60;;;;;;;;;;4969052;28;20019;-53
2022/02/05 09:35:51;;;;;;;18.90;13.97;;;;;;;;;;4983226;28;20041;-52
2022/02/05 09:38:16;;;;;;;17.98;13.82;;;;;;;;;;4968049;28;20282;-53
2022/02/05 09:40:41;;;;;;;18.43;13.33;;;;;;;;;;4967553;28;20037;-53
2022/02/05 09:43:06;;;;;;;17.73;13.90;;;;;;;;;;4967665;28;20328;-54
2022/02/05 09:45:34;;;;;;;19.90;14.30;;;;;;;;;;4969556;28;20030;-54
2022/02/05 09:47:59;;;;;;;17.80;13.50;;;;;;;;;;4981765;28;20330;-53
2022/02/05 09:50:25;;;;;;;19.50;13.80;;;;;;;;;;4967833;28;20437;-52
2022/02/05 09:52:52;;;;;;;18.23;13.45;;;;;;;;;;4967546;28;20297;-54
2022/02/05 09:55:17;;;;;;;30.67;14.85;;;;;;;;;;4983347;28;20039;-53
2022/02/05 09:57:43;;;;;;;39.40;15.55;;;;;;;;;;4986177;28;20100;-53
2022/02/05 10:00:13;;;;;;;26.37;14.00;;;;;;;;;;4986662;28;20407;-52
2022/02/05 10:02:40;;;;;;;19.50;13.57;;;;;;;;;;4986461;28;20870;-51
2022/02/05 10:05:10;;;;;;;20.05;13.27;;;;;;;;;;4988868;28;20114;-53
2022/02/05 10:07:50;;;;;;;20.77;13.68;;;;;;;;;;4989214;28;20042;-54
2022/02/05 10:10:16;;;;;;;21.73;13.85;;;;;;;;;;4986583;28;20030;-54
2022/02/05 10:12:41;;;;;;;23.90;13.90;;;;;;;;;;4986116;28;20822;-53
2022/02/05 10:15:06;;;;;;;20.27;13.67;;;;;;;;;;4986155;28;20420;-54
2022/02/05 10:17:38;;;;;;;20.73;13.75;;;;;;;;;;4968549;28;20429;-53
2022/02/05 10:20:04;;;;;;;18.05;12.93;;;;;;;;;;4948967;28;20026;-53
2022/02/05 10:22:36;;;;;;;18.77;13.43;;;;;;;;;;4966710;28;20018;-54
2022/02/05 10:25:06;;;;;;;19.80;13.05;;;;;;;;;;4966191;28;20033;-55
2022/02/05 10:27:39;;;;;;;19.58;13.07;;;;;;;;;;4967279;28;20096;-54
2022/02/05 10:30:09;;;;;;;20.55;13.60;;;;;;;;;;4985850;28;20093;-54
2022/02/05 10:32:40;;;;;;;18.23;13.07;;;;;;;;;;4984367;28;20029;-54
2022/02/05 10:35:20;;;;;;;18.35;12.70;;;;;;;;;;4971650;28;20134;-55
2022/02/05 10:37:50;;;;;;;18.75;13.20;;;;;;;;;;4966343;28;20039;-54
2022/02/05 10:40:22;;;;;;;19.58;13.02;;;;;;;;;;4965694;28;20500;-55
2022/02/05 10:45:24;;;;;;;20.95;13.32;;;;;;;;;;4966417;28;20420;-55
2022/02/05 10:47:50;;;;;;;17.63;12.60;;;;;;;;;;4985841;28;20022;-53
2022/02/05 10:50:16;;;;;;;19.95;12.40;;;;;;;;;;4985092;28;20277;-54
2022/02/05 10:52:43;;;;;;;17.27;12.38;;;;;;;;;;4985178;28;20405;-53
2022/02/05 10:55:25;;;;;;;18.25;12.88;;;;;;;;;;4969059;28;20038;-55
2022/02/05 10:58:21;;;;;;;16.25;12.93;;;;;;;;;;4966123;28;20536;-53
2022/02/05 11:05:55;;;;;;;16.50;12.70;;;;;;;;;;4970564;28;20068;-54
2022/02/05 11:08:22;;;;;;;18.90;13.07;;;;;;;;;;4985504;28;20034;-55
2022/02/05 11:18:39;;;;;;;18.42;13.30;;;;;;;;;;4966528;28;20031;-53
2022/02/05 11:21:04;;;;;;;17.35;12.63;;;;;;;;;;4966361;28;20504;-52
2022/02/05 11:23:29;;;;;;;19.60;13.05;;;;;;;;;;4965545;28;20033;-54
2022/02/05 11:25:55;;;;;;;17.87;13.27;;;;;;;;;;4953481;28;20036;-59
2022/02/05 11:28:38;;;;;;;17.17;12.50;;;;;;;;;;4977288;28;20301;-55
2022/02/05 11:31:13;;;;;;;17.88;12.48;;;;;;;;;;4965994;28;20120;-54
2022/02/05 11:33:38;;;;;;;17.27;12.43;;;;;;;;;;4970377;28;20112;-52
2022/02/05 11:36:39;;;;;;;17.58;13.38;;;;;;;;;;4983793;28;20843;-53
2022/02/05 11:38:57;;;;;;;16.40;12.65;;;;;;;;;;4984675;28;20458;-53
2022/02/05 11:41:23;;;;;;;19.00;13.25;;;;;;;;;;4983762;28;20022;-53
2022/02/05 11:43:52;;;;;;;16.40;12.35;;;;;;;;;;4965514;28;20448;-53
2022/02/05 11:46:21;;;;;;;18.00;12.98;;;;;;;;;;4971476;28;20041;-55
2022/02/05 11:48:47;;;;;;;20.33;12.52;;;;;;;;;;4957166;28;20106;-53
2022/02/05 11:51:13;;;;;;;21.97;13.03;;;;;;;;;;4965065;28;20070;-55
2022/02/05 11:54:00;;;;;;;18.25;12.55;;;;;;;;;;4949626;28;20389;-53
2022/02/05 11:56:57;;;;;;;19.58;12.77;;;;;;;;;;4984580;28;20124;-54
2022/02/05 11:59:23;;;;;;;19.95;13.32;;;;;;;;;;4984764;28;20186;-54
2022/02/05 12:01:49;;;;;;;18.58;13.25;;;;;;;;;;4965237;28;20506;-53
2022/02/05 12:04:17;;;;;;;23.67;12.75;;;;;;;;;;4965859;28;20101;-54
2022/02/05 12:06:46;;;;;;;19.33;12.27;;;;;;;;;;4978267;28;20122;-54
2022/02/05 12:09:30;;;;;;;18.47;13.30;;;;;;;;;;4973849;28;20049;-52
2022/02/05 12:11:55;;;;;;;18.88;13.18;;;;;;;;;;4968843;28;20470;-54
2022/02/05 12:14:21;;;;;;;19.58;13.10;;;;;;;;;;4975046;28;20089;-55
2022/02/05 12:17:07;;;;;;;19.70;12.85;;;;;;;;;;4977232;28;20473;-53
2022/02/05 12:19:34;;;;;;;17.02;11.88;;;;;;;;;;4968626;28;20073;-53
2022/02/05 12:22:03;;;;;;;17.08;12.68;;;;;;;;;;4968806;28;20081;-53
2022/02/05 12:24:49;;;;;;;16.80;12.63;;;;;;;;;;4968867;28;20410;-54
2022/02/05 12:27:32;;;;;;;19.83;12.48;;;;;;;;;;4983396;28;20045;-55
2022/02/05 12:30:16;;;;;;;17.35;11.88;;;;;;;;;;4986571;28;20097;-54
2022/02/05 12:32:42;;;;;;;17.45;12.18;;;;;;;;;;4970621;28;20021;-54
2022/02/05 12:35:07;;;;;;;16.45;12.10;;;;;;;;;;4988047;28;20039;-53
2022/02/05 12:37:35;;;;;;;17.10;11.87;;;;;;;;;;4988141;28;20041;-53
2022/02/05 12:40:01;;;;;;;17.02;12.27;;;;;;;;;;4986897;28;20274;-55
2022/02/05 12:42:26;;;;;;;16.13;11.70;;;;;;;;;;4986827;28;20022;-55
2022/02/05 12:44:51;;;;;;;17.55;12.25;;;;;;;;;;4987822;28;20096;-54
2022/02/05 12:47:26;;;;;;;15.43;11.67;;;;;;;;;;4988306;28;20497;-54
2022/02/05 12:49:57;;;;;;;16.80;11.50;;;;;;;;;;4971313;28;20795;-54
2022/02/05 12:52:25;;;;;;;14.63;11.30;;;;;;;;;;4988023;28;20022;-53
2022/02/05 12:54:55;;;;;;;16.85;11.63;;;;;;;;;;4987874;28;20135;-54
2022/02/05 12:57:20;;;;;;;15.63;11.77;;;;;;;;;;4986833;28;20113;-53
2022/02/05 12:59:45;;;;;;;17.77;12.23;;;;;;;;;;4987955;28;20126;-55
2022/02/05 13:02:11;;;;;;;16.67;11.50;;;;;;;;;;4987866;28;20032;-54
2022/02/05 13:04:41;;;;;;;16.95;10.90;;;;;;;;;;4988096;28;20109;-55
2022/02/05 13:07:13;;;;;;;15.45;11.25;;;;;;;;;;4987589;28;20057;-52
2022/02/05 13:09:50;;;;;;;15.38;11.13;;;;;;;;;;4987488;28;20033;-55
2022/02/05 13:12:20;;;;;;;15.52;10.93;;;;;;;;;;4987723;28;20018;-52
2022/02/05 13:15:01;;;;;;;16.27;11.70;;;;;;;;;;4987380;28;20045;-55
2022/02/05 13:18:12;;;;;;;17.85;12.15;;;;;;;;;;4969844;28;20027;-53
2022/02/05 13:24:40;;;;;;;14.95;10.98;;;;;;;;;;4967439;28;20055;-55
2022/02/05 13:26:26;;;;;;;15.27;11.95;;;;;;;;;;4972168;28;20030;-54
2022/02/05 13:34:19;;;;;;;13.65;10.65;;;;;;;;;;4974397;28;20063;-55
2022/02/05 13:37:06;;;;;;;14.30;10.90;;;;;;;;;;4976772;28;20030;-54
2022/02/05 13:42:17;;;;;;;13.85;10.27;;;;;;;;;;4967825;28;20030;-54
2022/02/05 13:45:12;;;;;;;16.15;10.73;;;;;;;;;;4967768;28;20118;-55
2022/02/05 13:47:48;;;;;;;15.02;11.27;;;;;;;;;;4985211;28;20066;-55
2022/02/05 13:50:14;;;;;;;14.45;11.13;;;;;;;;;;4987431;28;20018;-55
2022/02/05 13:52:48;;;;;;;14.00;10.27;;;;;;;;;;4986999;28;20109;-54
2022/02/05 13:55:22;;;;;;;14.60;10.30;;;;;;;;;;4972561;28;20093;-56
2022/02/05 13:57:54;;;;;;;14.38;11.25;;;;;;;;;;4967460;28;21029;-54
2022/02/05 14:00:20;;;;;;;14.80;10.85;;;;;;;;;;4967731;28;20054;-54
2022/02/05 14:02:45;;;;;;;14.52;10.93;;;;;;;;;;4967346;28;20050;-52
2022/02/05 14:05:11;;;;;;;15.00;11.10;;;;;;;;;;4950055;28;20085;-51
2022/02/05 14:07:43;;;;;;;14.52;11.10;;;;;;;;;;4982675;28;20321;-53
2022/02/05 14:10:14;;;;;;;14.23;10.90;;;;;;;;;;4967139;28;20417;-52
2022/02/05 14:12:50;;;;;;;14.13;10.00;;;;;;;;;;4950860;28;20026;-54
2022/02/05 14:15:16;;;;;;;14.13;10.30;;;;;;;;;;4982852;28;20125;-54
2022/02/05 14:17:41;;;;;;;15.13;10.85;;;;;;;;;;4969968;28;20086;-52
2022/02/05 14:20:06;;;;;;;28.97;11.63;;;;;;;;;;4967607;28;20019;-52
2022/02/05 14:22:35;;;;;;;16.98;10.80;;;;;;;;;;4967024;28;20713;-52
2022/02/05 14:25:03;;;;;;;9.88;7.07;;;;;;;;;;4949627;28;20127;-52
2022/02/05 14:27:31;;;;;;;8.88;3.92;;;;;;;;;;4982407;28;20516;-53
2022/02/05 14:30:00;;;;;;;11.07;4.95;;;;;;;;;;4969018;28;20082;-54
2022/02/05 14:32:42;;;;;;;8.48;5.53;;;;;;;;;;4966819;28;20027;-55
2022/02/05 14:42:45;;;;;;;10.50;6.95;;;;;;;;;;4985954;28;20030;-53
2022/02/05 14:45:10;;;;;;;10.30;6.90;;;;;;;;;;4986154;28;20830;-55
2022/02/05 14:47:35;;;;;;;10.30;7.18;;;;;;;;;;4984933;28;20343;-55
2022/02/05 14:50:03;;;;;;;9.67;6.90;;;;;;;;;;4966709;28;20019;-54
2022/02/05 14:52:28;;;;;;;12.27;7.32;;;;;;;;;;4966710;28;20361;-54
2022/02/05 14:54:53;;;;;;;12.40;7.90;;;;;;;;;;4977594;28;20148;-56
2022/02/05 14:57:19;;;;;;;12.20;7.80;;;;;;;;;;4970917;28;20523;-56
2022/02/05 14:59:44;;;;;;;11.98;7.75;;;;;;;;;;4966616;28;20510;-56
2022/02/05 15:02:10;;;;;;;11.27;8.13;;;;;;;;;;4966197;28;20035;-53
2022/02/05 15:04:36;;;;;;;11.88;8.48;;;;;;;;;;4966081;28;20031;-52
2022/02/05 15:07:02;;;;;;;13.23;7.90;;;;;;;;;;4965743;28;20505;-52
2022/02/05 15:09:27;;;;;;;11.98;7.95;;;;;;;;;;4966515;28;20031;-51
2022/02/05 15:11:52;;;;;;;13.63;8.83;;;;;;;;;;4965948;28;20529;-51
2022/02/05 15:14:18;;;;;;;14.77;8.97;;;;;;;;;;4965844;28;20281;-52
2022/02/05 15:16:43;;;;;;;13.48;8.60;;;;;;;;;;4966433;28;20027;-52
2022/02/05 15:19:08;;;;;;;12.03;8.83;;;;;;;;;;4965836;28;20051;-54
2022/02/05 15:21:34;;;;;;;13.03;9.07;;;;;;;;;;4965671;28;20289;-54
2022/02/05 15:24:00;;;;;;;11.55;8.43;;;;;;;;;;4965695;28;20042;-55
2022/02/05 15:26:27;;;;;;;13.10;8.75;;;;;;;;;;4973092;28;20113;-53
2022/02/05 15:28:52;;;;;;;11.77;8.73;;;;;;;;;;4973956;28;20044;-54
2022/02/05 15:31:18;;;;;;;13.02;8.77;;;;;;;;;;4965383;28;20019;-54
2022/02/05 15:33:45;;;;;;;13.63;9.15;;;;;;;;;;4967508;28;20570;-54
2022/02/05 15:36:12;;;;;;;12.93;8.50;;;;;;;;;;4979984;28;20499;-53
2022/02/05 15:38:51;;;;;;;12.25;8.57;;;;;;;;;;4968072;28;20118;-53
2022/02/05 15:43:59;;;;;;;13.20;8.65;;;;;;;;;;4972922;28;20863;-53
2022/02/05 15:46:25;;;;;;;13.13;8.80;;;;;;;;;;4985014;28;20042;-54
2022/02/05 15:48:51;;;;;;;12.63;9.05;;;;;;;;;;4978131;28;20061;-53
2022/02/05 15:51:16;;;;;;;12.23;8.48;;;;;;;;;;4970858;28;20417;-54
2022/02/05 15:53:48;;;;;;;12.70;8.85;;;;;;;;;;4966831;28;20046;-57
2022/02/05 15:56:25;;;;;;;11.55;8.45;;;;;;;;;;4984573;28;20676;-53
2022/02/05 15:58:52;;;;;;;10.98;8.07;;;;;;;;;;4983681;28;20537;-53
2022/02/05 16:01:18;;;;;;;12.65;8.13;;;;;;;;;;4984410;28;20030;-54
2022/02/05 16:03:43;;;;;;;12.80;8.93;;;;;;;;;;4975342;28;20022;-54
2022/02/05 16:06:08;;;;;;;11.67;8.53;;;;;;;;;;4983754;28;20140;-54
2022/02/05 16:08:33;;;;;;;16.27;9.37;;;;;;;;;;4984345;28;20262;-55
2022/02/05 16:10:59;;;;;;;12.85;8.00;;;;;;;;;;4984105;28;20795;-54
2022/02/05 16:13:24;;;;;;;14.15;8.70;;;;;;;;;;4981884;28;20022;-54
2022/02/05 16:15:49;;;;;;;11.53;8.23;;;;;;;;;;4982163;28;20458;-54
2022/02/05 16:18:15;;;;;;;11.57;7.90;;;;;;;;;;4982113;28;20257;-53
2022/02/05 16:20:40;;;;;;;11.93;7.88;;;;;;;;;;4982899;28;21029;-53
2022/02/05 16:23:05;;;;;;;11.63;8.07;;;;;;;;;;4971459;28;20095;-55
2022/02/05 16:25:30;;;;;;;11.75;7.72;;;;;;;;;;4964941;28;20310;-53
2022/02/05 16:27:56;;;;;;;11.27;7.60;;;;;;;;;;4980614;28;20025;-53
2022/02/05 16:30:23;;;;;;;11.15;7.35;;;;;;;;;;4955047;28;20417;-53
2022/02/05 16:32:51;;;;;;;9.93;7.38;;;;;;;;;;4964818;28;20054;-53
2022/02/05 16:35:17;;;;;;;13.27;7.57;;;;;;;;;;4979192;28;20034;-52
2022/02/05 16:37:42;;;;;;;11.55;7.50;;;;;;;;;;4983942;28;20145;-53
2022/02/05 16:40:11;;;;;;;12.23;7.97;;;;;;;;;;4984374;28;20030;-53
2022/02/05 16:42:36;;;;;;;11.23;7.60;;;;;;;;;;4984156;28;20034;-51
2022/02/05 16:45:01;;;;;;;9.87;6.97;;;;;;;;;;4984321;28;20554;-51
2022/02/05 16:47:28;;;;;;;12.60;7.93;;;;;;;;;;4984024;28;20266;-53
2022/02/05 16:49:53;;;;;;;11.32;7.55;;;;;;;;;;4984122;28;20018;-52
2022/02/05 16:52:20;;;;;;;10.07;7.10;;;;;;;;;;4988307;28;20455;-52
2022/02/05 16:54:45;;;;;;;11.18;8.00;;;;;;;;;;4977680;28;20302;-53
2022/02/05 16:57:10;;;;;;;11.57;7.87;;;;;;;;;;4981796;28;20092;-53
2022/02/05 16:59:36;;;;;;;12.20;8.07;;;;;;;;;;4988057;28;20301;-53
2022/02/05 17:02:01;;;;;;;11.33;7.73;;;;;;;;;;4987794;28;20549;-52
2022/02/05 17:04:26;;;;;;;11.95;7.88;;;;;;;;;;4970441;28;20491;-54
2022/02/05 17:06:51;;;;;;;11.43;8.07;;;;;;;;;;4987408;28;20069;-53
2022/02/05 17:09:17;;;;;;;10.90;7.68;;;;;;;;;;4987761;28;20327;-52
2022/02/05 17:11:42;;;;;;;11.77;8.10;;;;;;;;;;4987645;28;20026;-53
2022/02/05 17:14:07;;;;;;;12.10;8.15;;;;;;;;;;4982793;28;20054;-54
2022/02/05 17:16:33;;;;;;;11.73;8.10;;;;;;;;;;4951193;28;20031;-53
2022/02/05 17:18:59;;;;;;;11.52;8.55;;;;;;;;;;4968277;28;20027;-53